Rumpus Ridge, South Dakota
Current Conditions -  °F | °C
As of 6:56 PM on Wednesday 26 Nov 2014 (Local Time) from KFSD Reporting Station
Overcast Overcast  
Wind Chill: -2°   Ceiling: 7500
Heat Index: 14°   Visibility: 10mi
Dew Point:   Wind: 16mph
Humidity: 71%   Direction: 350°N
Pressure: 30.38"   Gusts: NA
Location:  43.5855°N, 97.3085°W
Report Text: KFSD 270056Z 35014KT 10SM OVC075 M10/M14 A3038 RMK AO2 SLP314 T11001144
Loading
Personal Weather Stations






























Interactive Weather Map New forecast layout! Learn more

10-Day Weather Forecast

Advertisements
Track Severe Weather on mobile